createdAt,value
2023-02-26T00:01:33.226Z,-5.19
2023-02-26T00:04:03.341Z,-5.26
2023-02-26T00:06:34.594Z,-4.99
2023-02-26T00:09:04.077Z,-4.86
2023-02-26T00:11:32.991Z,-4.72
2023-02-26T00:14:00.676Z,-4.61
2023-02-26T00:16:31.404Z,-4.42
2023-02-26T00:19:02.201Z,-4.38
2023-02-26T00:21:30.791Z,-4.21
2023-02-26T00:23:59.062Z,-4.09
2023-02-26T00:26:27.855Z,-4.02
2023-02-26T00:28:56.437Z,-3.96
2023-02-26T00:31:25.254Z,-3.84
2023-02-26T00:33:54.854Z,-3.74
2023-02-26T00:36:41.970Z,-3.64
2023-02-26T00:39:50.741Z,-3.50
2023-02-26T00:42:18.742Z,-3.43
2023-02-26T00:44:46.548Z,-3.41
2023-02-26T00:47:26.200Z,-3.24
2023-02-26T00:50:20.674Z,-3.16
2023-02-26T00:53:00.368Z,-3.07
2023-02-26T00:55:29.400Z,-3.04
2023-02-26T00:57:57.428Z,-2.92
2023-02-26T01:00:25.278Z,-2.88
2023-02-26T01:02:53.146Z,-2.86
2023-02-26T01:05:21.226Z,-2.79
2023-02-26T01:08:02.692Z,-2.61
2023-02-26T01:10:30.850Z,-2.63
2023-02-26T01:12:58.562Z,-2.61
2023-02-26T01:15:26.553Z,-2.62
2023-02-26T01:18:08.635Z,-2.51
2023-02-26T01:20:47.899Z,-2.42
2023-02-26T01:23:44.181Z,-2.32
2023-02-26T01:26:17.984Z,-2.23
2023-02-26T01:28:45.842Z,-2.24
2023-02-26T01:31:42.849Z,-2.14
2023-02-26T01:34:20.325Z,-2.09
2023-02-26T01:36:57.167Z,-2.04
2023-02-26T01:39:32.516Z,-2.04
2023-02-26T01:42:22.268Z,-2.00
2023-02-26T01:45:02.169Z,-1.98
2023-02-26T01:48:11.664Z,-1.97
2023-02-26T01:50:49.490Z,-1.97
2023-02-26T01:53:26.227Z,-1.94
2023-02-26T01:56:00.375Z,-2.02
2023-02-26T01:58:33.803Z,-2.11
2023-02-26T02:01:02.466Z,-2.09
2023-02-26T02:03:33.443Z,-2.15
2023-02-26T02:06:08.652Z,-2.09
2023-02-26T02:08:36.620Z,-2.16
2023-02-26T02:11:07.413Z,-2.07
2023-02-26T02:13:53.194Z,-1.95
2023-02-26T02:16:47.533Z,-1.92
2023-02-26T02:19:34.770Z,-1.88
2023-02-26T02:22:29.851Z,-1.86
2023-02-26T02:25:22.546Z,-1.82
2023-02-26T02:28:20.592Z,-1.79
2023-02-26T02:31:09.590Z,-1.76
2023-02-26T02:33:55.771Z,-1.82
2023-02-26T02:36:53.899Z,-1.85
2023-02-26T02:39:35.701Z,-1.83
2023-02-26T02:42:06.364Z,-1.82
2023-02-26T02:44:39.552Z,-1.77
2023-02-26T02:47:10.176Z,-1.92
2023-02-26T02:49:45.312Z,-1.94
2023-02-26T02:52:30.366Z,-1.87
2023-02-26T02:55:05.908Z,-1.99
2023-02-26T02:57:52.135Z,-1.97
2023-02-26T03:00:22.849Z,-2.21
2023-02-26T03:02:58.371Z,-2.09
2023-02-26T03:05:26.719Z,-2.08
2023-02-26T03:07:59.430Z,-2.03
2023-02-26T03:10:27.251Z,-2.04
2023-02-26T03:12:55.364Z,-2.12
2023-02-26T03:15:48.839Z,-1.99
2023-02-26T03:18:54.338Z,-1.90
2023-02-26T03:21:49.516Z,-1.79
2023-02-26T03:24:36.048Z,-1.94
2023-02-26T03:27:30.103Z,-1.77
2023-02-26T03:30:22.978Z,-1.72
2023-02-26T03:33:10.137Z,-1.66
2023-02-26T03:35:51.375Z,-1.59
2023-02-26T03:38:32.259Z,-1.86
2023-02-26T03:41:14.522Z,-1.65
2023-02-26T03:44:11.317Z,-1.53
2023-02-26T03:46:46.410Z,-1.78
2023-02-26T03:49:20.998Z,-1.40
2023-02-26T03:51:50.070Z,-1.49
2023-02-26T03:55:11.083Z,-1.38
2023-02-26T03:57:54.013Z,-1.40
2023-02-26T04:00:56.078Z,-1.31
2023-02-26T04:03:28.122Z,-1.33
2023-02-26T04:05:56.874Z,-1.36
2023-02-26T04:08:25.104Z,-1.33
2023-02-26T04:11:00.396Z,-1.30
2023-02-26T04:13:29.010Z,-1.26
2023-02-26T04:15:57.702Z,-1.25
2023-02-26T04:18:26.168Z,-1.22
2023-02-26T04:20:53.887Z,-1.12
2023-02-26T04:23:21.528Z,-1.10
2023-02-26T04:25:49.405Z,-1.04
2023-02-26T04:28:17.587Z,-0.96
2023-02-26T04:30:45.510Z,-0.97
2023-02-26T04:33:20.303Z,-0.82
2023-02-26T04:35:49.275Z,-0.79
2023-02-26T04:38:21.013Z,-0.69
2023-02-26T04:40:50.694Z,-0.58
2023-02-26T04:43:20.055Z,-0.61
2023-02-26T04:45:59.107Z,-0.54
2023-02-26T04:48:27.015Z,-0.48
2023-02-26T04:50:58.124Z,-0.43
2023-02-26T04:53:25.960Z,-0.30
2023-02-26T04:55:53.506Z,-0.20
2023-02-26T04:58:21.662Z,-0.18
2023-02-26T05:00:51.105Z,-0.13
2023-02-26T05:03:18.907Z,-0.10
2023-02-26T05:05:50.611Z,-0.08
2023-02-26T05:08:18.253Z,-0.08
2023-02-26T05:11:08.548Z,-0.01
2023-02-26T05:13:40.780Z,0.03
2023-02-26T05:16:11.721Z,0.15
2023-02-26T05:18:39.404Z,0.15
2023-02-26T05:21:10.069Z,0.27
2023-02-26T05:23:40.435Z,0.39
2023-02-26T05:26:11.207Z,0.46
2023-02-26T05:28:38.786Z,0.57
2023-02-26T05:31:12.261Z,0.72
2023-02-26T05:33:40.009Z,0.84
2023-02-26T05:36:07.702Z,0.99
2023-02-26T05:38:35.639Z,1.11
2023-02-26T05:41:03.311Z,1.22
2023-02-26T05:43:31.133Z,1.34
2023-02-26T05:45:58.745Z,1.40
2023-02-26T05:48:26.436Z,1.46
2023-02-26T05:50:53.978Z,1.50
2023-02-26T05:53:21.559Z,1.51
2023-02-26T05:55:50.604Z,1.59
2023-02-26T05:58:20.805Z,1.65
2023-02-26T06:00:50.945Z,1.69
2023-02-26T06:03:18.512Z,1.75
2023-02-26T06:05:48.866Z,1.78
2023-02-26T06:08:22.068Z,1.78
2023-02-26T06:10:52.703Z,1.88
2023-02-26T06:13:23.092Z,1.92
2023-02-26T06:15:52.604Z,1.94
2023-02-26T06:18:20.162Z,1.95
2023-02-26T06:20:47.796Z,2.01
2023-02-26T06:23:18.156Z,2.01
2023-02-26T06:25:45.948Z,2.01
2023-02-26T06:28:13.603Z,2.04
2023-02-26T06:30:41.659Z,2.01
2023-02-26T06:33:09.305Z,2.02
2023-02-26T06:35:36.889Z,2.00
2023-02-26T06:38:05.029Z,2.11
2023-02-26T06:40:32.569Z,2.03
2023-02-26T06:43:00.252Z,2.07
2023-02-26T06:45:27.853Z,2.06
2023-02-26T06:47:55.303Z,2.02
2023-02-26T06:50:25.680Z,2.10
2023-02-26T06:52:53.201Z,2.09
2023-02-26T06:55:22.352Z,2.09
2023-02-26T06:57:49.924Z,2.08
2023-02-26T07:00:17.672Z,2.06
2023-02-26T07:02:45.369Z,2.03
2023-02-26T07:05:13.016Z,2.06
2023-02-26T07:07:43.506Z,2.10
2023-02-26T07:10:12.937Z,2.12
2023-02-26T07:12:40.507Z,2.07
2023-02-26T07:15:08.782Z,2.12
2023-02-26T07:17:36.350Z,2.15
2023-02-26T07:20:10.358Z,2.13
2023-02-26T07:22:38.760Z,2.15
2023-02-26T07:25:07.661Z,2.15
2023-02-26T07:27:35.363Z,2.20
2023-02-26T07:30:03.200Z,2.19
2023-02-26T07:32:32.231Z,2.22
2023-02-26T07:34:59.993Z,2.22
2023-02-26T07:37:27.698Z,2.17
2023-02-26T07:39:55.741Z,2.19
2023-02-26T07:42:26.329Z,2.21
2023-02-26T07:44:53.879Z,2.27
2023-02-26T07:47:21.493Z,2.26
2023-02-26T07:49:49.017Z,2.26
2023-02-26T07:52:17.010Z,2.30
2023-02-26T07:54:44.617Z,2.29
2023-02-26T07:57:12.265Z,2.32
2023-02-26T07:59:39.924Z,2.45
2023-02-26T08:02:08.242Z,2.43
2023-02-26T08:04:35.854Z,2.42
2023-02-26T08:07:03.656Z,2.39
2023-02-26T08:09:31.280Z,2.39
2023-02-26T08:11:58.865Z,2.42
2023-02-26T08:14:26.479Z,2.40
2023-02-26T08:16:54.110Z,2.45
2023-02-26T08:19:21.704Z,2.40
2023-02-26T08:21:50.625Z,2.45
2023-02-26T08:24:18.386Z,2.63
2023-02-26T08:26:46.620Z,2.57
2023-02-26T08:29:14.366Z,2.56
2023-02-26T08:31:42.178Z,2.49
2023-02-26T08:34:10.034Z,2.50
2023-02-26T08:36:37.585Z,2.46
2023-02-26T08:39:05.245Z,2.49
2023-02-26T08:41:33.098Z,2.52
2023-02-26T08:44:01.605Z,2.51
2023-02-26T08:46:29.866Z,2.56
2023-02-26T08:48:58.326Z,2.63
2023-02-26T08:51:28.372Z,2.65
2023-02-26T08:57:03.955Z,2.58
2023-02-26T08:59:31.470Z,2.69
2023-02-26T09:01:59.074Z,2.78
2023-02-26T09:04:28.719Z,2.78
2023-02-26T09:06:58.362Z,2.76
2023-02-26T09:09:26.093Z,2.78
2023-02-26T09:11:53.687Z,2.82
2023-02-26T09:14:21.200Z,2.84
2023-02-26T09:16:51.125Z,2.86
2023-02-26T09:19:18.833Z,2.85
2023-02-26T09:21:46.608Z,2.86
2023-02-26T09:24:14.341Z,2.82
2023-02-26T09:26:41.935Z,2.85
2023-02-26T09:29:09.838Z,2.82
2023-02-26T09:31:37.624Z,2.83
2023-02-26T09:34:06.094Z,2.91
2023-02-26T09:36:33.757Z,2.87
2023-02-26T09:39:01.351Z,2.82
2023-02-26T09:41:36.816Z,2.85
2023-02-26T09:44:07.366Z,2.89
2023-02-26T09:46:57.170Z,2.94
2023-02-26T09:49:31.627Z,2.90
2023-02-26T09:52:24.338Z,2.77
2023-02-26T09:54:56.747Z,2.91
2023-02-26T09:57:33.478Z,2.94
2023-02-26T10:00:40.005Z,2.95
2023-02-26T10:03:26.216Z,2.99
2023-02-26T10:06:09.197Z,2.96
2023-02-26T10:09:03.841Z,3.03
2023-02-26T10:11:34.981Z,3.01
2023-02-26T10:14:07.557Z,3.00
2023-02-26T10:16:41.608Z,3.00
2023-02-26T10:19:15.164Z,3.05
2023-02-26T10:22:19.760Z,3.18
2023-02-26T10:25:13.630Z,3.16
2023-02-26T10:28:01.927Z,3.12
2023-02-26T10:30:41.835Z,3.13
2023-02-26T10:33:35.948Z,3.12
2023-02-26T10:36:14.621Z,3.08
2023-02-26T10:38:44.476Z,3.05
2023-02-26T10:41:19.316Z,3.01
2023-02-26T10:44:14.751Z,3.11
2023-02-26T10:46:52.566Z,3.07
2023-02-26T10:49:46.298Z,2.85
2023-02-26T10:52:36.235Z,2.79
2023-02-26T10:55:26.782Z,2.99
2023-02-26T10:58:13.267Z,3.03
2023-02-26T11:00:47.093Z,2.97
2023-02-26T11:03:22.211Z,3.20
2023-02-26T11:05:50.738Z,3.05
2023-02-26T11:08:27.978Z,3.08
2023-02-26T11:11:04.723Z,3.06
2023-02-26T11:13:35.002Z,3.04
2023-02-26T11:16:14.553Z,3.01
2023-02-26T11:18:45.121Z,2.95
2023-02-26T11:21:23.071Z,3.03
2023-02-26T11:24:03.419Z,3.06
2023-02-26T11:26:37.546Z,2.89
2023-02-26T11:29:06.657Z,3.02
2023-02-26T11:31:34.524Z,2.99
2023-02-26T11:34:09.340Z,3.08
2023-02-26T11:36:41.119Z,2.98
2023-02-26T11:39:21.627Z,2.86
2023-02-26T11:41:51.582Z,2.99
2023-02-26T11:44:38.868Z,3.09
2023-02-26T11:47:30.778Z,3.16
2023-02-26T11:50:05.991Z,3.00
2023-02-26T11:52:34.968Z,2.98
2023-02-26T11:55:06.605Z,2.30
2023-02-26T11:57:34.287Z,2.07
2023-02-26T12:00:17.323Z,2.31
2023-02-26T12:02:46.630Z,2.31
2023-02-26T12:05:17.505Z,2.49
2023-02-26T12:07:47.230Z,2.01
2023-02-26T12:10:33.362Z,1.75
2023-02-26T12:13:26.695Z,1.49
2023-02-26T12:16:06.665Z,1.11
2023-02-26T12:19:06.838Z,1.01
2023-02-26T12:21:58.608Z,1.07
2023-02-26T12:25:01.451Z,1.18
2023-02-26T12:27:52.148Z,1.43
2023-02-26T12:30:39.719Z,1.75
2023-02-26T12:33:19.454Z,1.91
2023-02-26T12:36:18.005Z,2.04
2023-02-26T12:38:52.744Z,1.91
2023-02-26T12:41:40.859Z,1.92
2023-02-26T12:44:36.104Z,2.01
2023-02-26T12:47:27.815Z,2.19
2023-02-26T12:50:21.479Z,2.16
2023-02-26T12:53:00.909Z,2.26
2023-02-26T12:55:53.150Z,2.34
2023-02-26T12:58:32.320Z,2.37
2023-02-26T13:01:16.266Z,2.41
2023-02-26T13:04:04.278Z,2.43
2023-02-26T13:07:02.550Z,2.42
2023-02-26T13:10:11.535Z,2.48
2023-02-26T13:12:50.741Z,2.48
2023-02-26T13:15:44.466Z,2.51
2023-02-26T13:18:42.255Z,2.54
2023-02-26T13:21:17.363Z,2.56
2023-02-26T13:24:07.330Z,2.60
2023-02-26T13:26:36.803Z,2.54
2023-02-26T13:29:30.069Z,2.67
2023-02-26T13:32:06.065Z,2.65
2023-02-26T13:34:48.696Z,2.67
2023-02-26T13:37:46.430Z,2.72
2023-02-26T13:40:32.625Z,2.67
2023-02-26T13:43:33.608Z,2.78
2023-02-26T13:46:25.327Z,2.85
2023-02-26T13:49:26.227Z,2.87
2023-02-26T13:51:55.664Z,2.75
2023-02-26T13:54:23.188Z,2.74
2023-02-26T13:57:06.999Z,2.86
2023-02-26T13:59:45.115Z,2.82
2023-02-26T14:02:44.618Z,2.98
2023-02-26T14:05:38.508Z,2.99
2023-02-26T14:08:19.065Z,3.05
2023-02-26T14:10:48.084Z,3.00
2023-02-26T14:13:44.840Z,3.07
2023-02-26T14:16:22.684Z,2.88
2023-02-26T14:18:52.345Z,2.83
2023-02-26T14:21:26.532Z,2.85
2023-02-26T14:24:03.701Z,2.68
2023-02-26T14:26:37.508Z,2.74
2023-02-26T14:29:05.012Z,2.67
2023-02-26T14:31:56.054Z,2.79
2023-02-26T14:34:26.545Z,2.61
2023-02-26T14:36:57.313Z,2.43
2023-02-26T14:39:35.203Z,2.52
2023-02-26T14:42:07.708Z,2.43
2023-02-26T14:44:43.545Z,2.44
2023-02-26T14:47:16.031Z,2.30
2023-02-26T14:49:49.839Z,2.46
2023-02-26T14:52:29.598Z,2.41
2023-02-26T14:54:59.968Z,2.38
2023-02-26T14:57:42.360Z,1.92
2023-02-26T15:00:48.244Z,1.81
2023-02-26T15:03:52.016Z,1.83
2023-02-26T15:06:34.832Z,1.92
2023-02-26T15:09:17.897Z,1.88
2023-02-26T15:12:01.969Z,1.54
2023-02-26T15:14:49.623Z,1.62
2023-02-26T15:17:45.055Z,1.45
2023-02-26T15:20:23.425Z,1.51
2023-02-26T15:22:53.995Z,1.65
2023-02-26T15:25:35.140Z,1.56
2023-02-26T15:28:06.237Z,1.49
2023-02-26T15:30:35.499Z,1.58
2023-02-26T15:33:07.980Z,1.36
2023-02-26T15:35:36.708Z,1.06
2023-02-26T15:38:05.185Z,1.23
2023-02-26T15:40:37.707Z,1.18
2023-02-26T15:43:09.364Z,1.29
2023-02-26T15:45:38.418Z,1.03
2023-02-26T15:48:10.430Z,0.90
2023-02-26T15:50:42.244Z,0.46
2023-02-26T15:53:16.817Z,0.60
2023-02-26T15:55:51.371Z,0.91
2023-02-26T15:58:50.659Z,1.17
2023-02-26T16:01:21.533Z,1.22
2023-02-26T16:03:53.033Z,1.24
2023-02-26T16:06:31.487Z,1.27
2023-02-26T16:09:00.726Z,1.37
2023-02-26T16:11:34.704Z,1.45
2023-02-26T16:14:05.269Z,1.38
2023-02-26T16:16:45.753Z,1.54
2023-02-26T16:19:21.311Z,1.52
2023-02-26T16:21:50.267Z,1.61
2023-02-26T16:24:23.406Z,1.70
2023-02-26T16:26:56.520Z,1.76
2023-02-26T16:29:32.981Z,1.86
2023-02-26T16:32:04.212Z,1.84
2023-02-26T16:34:37.197Z,1.90
2023-02-26T16:37:34.931Z,1.91
2023-02-26T16:40:11.816Z,1.95
2023-02-26T16:42:53.184Z,1.92
2023-02-26T16:45:26.849Z,1.95
2023-02-26T16:47:57.391Z,1.75
2023-02-26T16:50:29.303Z,1.86
2023-02-26T16:53:10.321Z,1.85
2023-02-26T16:55:40.421Z,1.80
2023-02-26T16:58:13.269Z,1.73
2023-02-26T17:00:45.319Z,1.74
2023-02-26T17:03:18.047Z,1.74
2023-02-26T17:06:04.889Z,1.76
2023-02-26T17:08:36.830Z,1.71
2023-02-26T17:11:08.088Z,1.77
2023-02-26T17:13:38.675Z,1.66
2023-02-26T17:16:10.791Z,1.63
2023-02-26T17:18:39.097Z,1.65
2023-02-26T17:21:06.990Z,1.48
2023-02-26T17:23:38.493Z,1.67
2023-02-26T17:26:06.747Z,1.66
2023-02-26T17:28:37.486Z,1.47
2023-02-26T17:31:05.286Z,1.60
2023-02-26T17:33:34.998Z,1.47
2023-02-26T17:36:14.171Z,1.33
2023-02-26T17:39:23.758Z,1.09
2023-02-26T17:41:50.032Z,0.77
2023-02-26T17:44:19.853Z,0.72
2023-02-26T17:46:47.485Z,0.56
2023-02-26T17:49:15.882Z,0.82
2023-02-26T17:51:44.953Z,0.71
2023-02-26T17:54:12.569Z,0.90
2023-02-26T17:56:42.092Z,0.56
2023-02-26T17:59:11.688Z,0.65
2023-02-26T18:01:40.460Z,-0.27
2023-02-26T18:04:10.014Z,-0.23
2023-02-26T18:06:38.301Z,-0.84
2023-02-26T18:09:06.432Z,-0.59
2023-02-26T18:11:34.777Z,-0.72
2023-02-26T18:14:02.673Z,-0.70
2023-02-26T18:16:34.672Z,-0.54
2023-02-26T18:19:02.769Z,-0.62
2023-02-26T18:21:31.494Z,-0.55
2023-02-26T18:24:01.429Z,-0.57
2023-02-26T18:26:33.014Z,-0.81
2023-02-26T18:29:00.695Z,-0.90
2023-02-26T18:31:35.132Z,-1.10
2023-02-26T18:34:03.504Z,-0.90
2023-02-26T18:36:38.043Z,-1.02
2023-02-26T18:39:08.899Z,-1.00
2023-02-26T18:41:36.736Z,-0.94
2023-02-26T18:44:04.750Z,-1.04
2023-02-26T18:46:35.090Z,-1.03
2023-02-26T18:49:02.645Z,-1.02
2023-02-26T18:51:30.634Z,-1.12
2023-02-26T18:53:58.202Z,-1.38
2023-02-26T18:56:25.821Z,-1.25
2023-02-26T18:58:53.442Z,-1.25
2023-02-26T19:01:21.172Z,-1.36
2023-02-26T19:03:49.452Z,-1.51
2023-02-26T19:06:18.107Z,-1.25
2023-02-26T19:08:45.636Z,-1.46
2023-02-26T19:11:13.424Z,-1.45
2023-02-26T19:13:41.089Z,-1.36
2023-02-26T19:16:11.530Z,-1.43
2023-02-26T19:18:42.857Z,-1.57
2023-02-26T19:21:11.253Z,-1.69
2023-02-26T19:23:38.893Z,-1.67
2023-02-26T19:26:06.512Z,-1.47
2023-02-26T19:28:34.069Z,-1.38
2023-02-26T19:31:03.517Z,-1.34
2023-02-26T19:33:37.366Z,-1.31
2023-02-26T19:36:05.424Z,-1.25
2023-02-26T19:38:33.017Z,-1.23
2023-02-26T19:41:01.014Z,-1.00
2023-02-26T19:43:28.544Z,-1.16
2023-02-26T19:45:58.887Z,-1.00
2023-02-26T19:48:27.420Z,-1.05
2023-02-26T19:50:55.838Z,-1.16
2023-02-26T19:53:23.534Z,-1.13
2023-02-26T19:55:51.343Z,-0.91
2023-02-26T19:58:19.974Z,-0.74
2023-02-26T20:00:47.666Z,-0.64
2023-02-26T20:03:15.177Z,-0.80
2023-02-26T20:05:43.103Z,-0.64
2023-02-26T20:08:11.534Z,-0.87
2023-02-26T20:10:39.294Z,-0.91
2023-02-26T20:13:06.953Z,-1.14
2023-02-26T20:15:34.507Z,-0.81
2023-02-26T20:18:02.113Z,-0.76
2023-02-26T20:20:29.684Z,-1.10
2023-02-26T20:22:57.299Z,-1.19
2023-02-26T20:25:24.985Z,-1.27
2023-02-26T20:27:52.791Z,-1.42
2023-02-26T20:30:20.949Z,-1.48
2023-02-26T20:32:48.627Z,-1.62
2023-02-26T20:35:16.392Z,-1.55
2023-02-26T20:37:44.594Z,-1.74
2023-02-26T20:40:12.826Z,-1.44
2023-02-26T20:42:40.815Z,-1.66
2023-02-26T20:45:08.620Z,-1.69
2023-02-26T20:47:36.180Z,-1.87
2023-02-26T20:50:03.836Z,-1.64
2023-02-26T20:52:31.388Z,-1.83
2023-02-26T20:54:58.958Z,-1.72
2023-02-26T20:57:26.544Z,-1.72
2023-02-26T20:59:54.502Z,-1.56
2023-02-26T21:02:22.088Z,-1.63
2023-02-26T21:04:49.628Z,-1.73
2023-02-26T21:07:23.137Z,-1.71
2023-02-26T21:09:52.462Z,-1.78
2023-02-26T21:12:20.281Z,-1.76
2023-02-26T21:14:50.601Z,-1.73
2023-02-26T21:17:18.182Z,-1.60
2023-02-26T21:19:46.116Z,-1.64
2023-02-26T21:22:13.830Z,-1.79
2023-02-26T21:24:44.530Z,-1.69
2023-02-26T21:27:16.996Z,-1.68
2023-02-26T21:29:45.042Z,-1.67
2023-02-26T21:32:12.788Z,-1.48
2023-02-26T21:34:40.439Z,-1.34
2023-02-26T21:37:11.056Z,-1.47
2023-02-26T21:39:39.788Z,-1.53
2023-02-26T21:42:09.130Z,-1.45
2023-02-26T21:44:36.891Z,-1.38
2023-02-26T21:47:04.603Z,-1.60
2023-02-26T21:49:32.516Z,-1.51
2023-02-26T21:52:02.656Z,-1.52
2023-02-26T21:54:30.435Z,-1.32
2023-02-26T21:56:58.583Z,-1.06
2023-02-26T21:59:26.717Z,-1.36
2023-02-26T22:01:54.750Z,-1.41
2023-02-26T22:04:22.609Z,-1.17
2023-02-26T22:06:50.598Z,-1.38
2023-02-26T22:09:21.664Z,-1.33
2023-02-26T22:11:49.379Z,-1.69
2023-02-26T22:14:17.060Z,-1.51
2023-02-26T22:16:44.846Z,-1.38
2023-02-26T22:19:12.529Z,-1.66
2023-02-26T22:21:40.216Z,-1.77
2023-02-26T22:24:08.194Z,-1.54
2023-02-26T22:26:35.851Z,-1.52
2023-02-26T22:29:04.055Z,-1.21
2023-02-26T22:31:32.594Z,-1.41
2023-02-26T22:34:01.099Z,-1.41
2023-02-26T22:36:30.527Z,-1.73
2023-02-26T22:38:58.377Z,-1.76
2023-02-26T22:41:26.081Z,-1.38
2023-02-26T22:43:54.142Z,-1.55
2023-02-26T22:46:24.621Z,-1.57
2023-02-26T22:48:52.245Z,-1.44
2023-02-26T22:51:19.774Z,-1.70
2023-02-26T22:53:47.418Z,-1.64
2023-02-26T22:56:15.177Z,-1.49
2023-02-26T22:58:42.725Z,-1.63
2023-02-26T23:01:10.323Z,-1.64
2023-02-26T23:03:38.031Z,-1.75
2023-02-26T23:06:05.956Z,-1.56
2023-02-26T23:08:33.850Z,-1.55
2023-02-26T23:11:02.880Z,-1.62
2023-02-26T23:13:34.539Z,-1.50
2023-02-26T23:16:04.229Z,-1.83
2023-02-26T23:18:32.638Z,-1.93
2023-02-26T23:21:01.236Z,-2.02
2023-02-26T23:23:28.812Z,-1.82
2023-02-26T23:25:56.473Z,-1.84
2023-02-26T23:28:25.408Z,-2.00
2023-02-26T23:30:53.235Z,-2.12
2023-02-26T23:33:21.230Z,-2.05
2023-02-26T23:35:49.330Z,-2.10
2023-02-26T23:38:16.977Z,-1.62
2023-02-26T23:40:44.840Z,-1.71
2023-02-26T23:43:12.352Z,-1.70
2023-02-26T23:45:40.016Z,-2.01
2023-02-26T23:48:07.856Z,-1.81
2023-02-26T23:50:35.423Z,-2.00
2023-02-26T23:53:02.960Z,-2.40
2023-02-26T23:55:30.560Z,-2.45
2023-02-26T23:57:58.330Z,-2.43
